sensor_id;sensor_type;location;lat;lon;timestamp;pressure;altitude;pressure_sealevel;temperature;humidity
62655;BME280;48717;55.556;37.816;2023-02-15T00:01:51;99640.44;;;-2.61;79.31
62655;BME280;48717;55.556;37.816;2023-02-15T00:04:21;99633.78;;;-2.74;78.66
62655;BME280;48717;55.556;37.816;2023-02-15T00:06:49;99652.44;;;-2.62;78.57
62655;BME280;48717;55.556;37.816;2023-02-15T00:09:16;99642.63;;;-2.69;78.97
62655;BME280;48717;55.556;37.816;2023-02-15T00:11:43;99641.50;;;-2.74;79.27
62655;BME280;48717;55.556;37.816;2023-02-15T00:14:21;99629.25;;;-2.78;78.69
62655;BME280;48717;55.556;37.816;2023-02-15T00:16:50;99667.00;;;-2.64;79.50
62655;BME280;48717;55.556;37.816;2023-02-15T00:19:19;99591.13;;;-3.02;78.98
62655;BME280;48717;55.556;37.816;2023-02-15T00:21:48;99636.34;;;-2.74;78.70
62655;BME280;48717;55.556;37.816;2023-02-15T00:24:17;99657.41;;;-2.66;79.31
62655;BME280;48717;55.556;37.816;2023-02-15T00:26:45;99623.91;;;-2.83;79.02
62655;BME280;48717;55.556;37.816;2023-02-15T00:29:14;99656.50;;;-2.67;78.99
62655;BME280;48717;55.556;37.816;2023-02-15T00:31:43;99665.06;;;-2.68;79.35
62655;BME280;48717;55.556;37.816;2023-02-15T00:34:15;99647.66;;;-2.72;78.67
62655;BME280;48717;55.556;37.816;2023-02-15T00:36:44;99652.28;;;-2.65;79.30
62655;BME280;48717;55.556;37.816;2023-02-15T00:39:14;99651.34;;;-2.67;79.90
62655;BME280;48717;55.556;37.816;2023-02-15T00:41:43;99613.97;;;-2.92;79.38
62655;BME280;48717;55.556;37.816;2023-02-15T00:44:12;99635.47;;;-2.74;80.00
62655;BME280;48717;55.556;37.816;2023-02-15T00:46:39;99649.25;;;-2.74;79.51
62655;BME280;48717;55.556;37.816;2023-02-15T00:49:09;99647.50;;;-2.75;79.30
62655;BME280;48717;55.556;37.816;2023-02-15T00:54:46;99652.66;;;-2.75;78.37
62655;BME280;48717;55.556;37.816;2023-02-15T00:57:13;99649.25;;;-2.74;79.12
62655;BME280;48717;55.556;37.816;2023-02-15T00:59:40;99664.41;;;-2.64;78.99
62655;BME280;48717;55.556;37.816;2023-02-15T01:02:07;99672.16;;;-2.64;78.76
62655;BME280;48717;55.556;37.816;2023-02-15T01:04:35;99677.31;;;-2.64;78.85
62655;BME280;48717;55.556;37.816;2023-02-15T01:07:02;99673.75;;;-2.66;79.25
62655;BME280;48717;55.556;37.816;2023-02-15T01:09:32;99672.16;;;-2.64;79.17
62655;BME280;48717;55.556;37.816;2023-02-15T01:11:59;99602.91;;;-3.07;79.03
62655;BME280;48717;55.556;37.816;2023-02-15T01:14:26;99680.69;;;-2.65;79.00
62655;BME280;48717;55.556;37.816;2023-02-15T01:16:53;99681.59;;;-2.64;79.02
62655;BME280;48717;55.556;37.816;2023-02-15T01:19:20;99638.47;;;-2.83;79.43
62655;BME280;48717;55.556;37.816;2023-02-15T01:21:47;99682.16;;;-2.70;79.47
62655;BME280;48717;55.556;37.816;2023-02-15T01:24:16;99667.50;;;-2.71;79.99
62655;BME280;48717;55.556;37.816;2023-02-15T01:26:43;99680.56;;;-2.68;80.00
62655;BME280;48717;55.556;37.816;2023-02-15T01:29:10;99646.47;;;-2.79;79.78
62655;BME280;48717;55.556;37.816;2023-02-15T01:31:42;99648.50;;;-2.90;79.68
62655;BME280;48717;55.556;37.816;2023-02-15T01:34:10;99683.91;;;-2.69;79.96
62655;BME280;48717;55.556;37.816;2023-02-15T01:36:38;99656.63;;;-2.82;80.22
62655;BME280;48717;55.556;37.816;2023-02-15T01:39:05;99650.44;;;-2.85;80.34
62655;BME280;48717;55.556;37.816;2023-02-15T01:41:34;99675.16;;;-2.72;80.15
62655;BME280;48717;55.556;37.816;2023-02-15T01:44:02;99680.00;;;-2.79;80.17
62655;BME280;48717;55.556;37.816;2023-02-15T01:46:45;99595.84;;;-3.28;80.34
62655;BME280;48717;55.556;37.816;2023-02-15T01:49:19;99684.56;;;-2.73;80.54
62655;BME280;48717;55.556;37.816;2023-02-15T01:51:48;99655.91;;;-2.96;80.14
62655;BME280;48717;55.556;37.816;2023-02-15T01:54:29;99662.16;;;-2.92;80.23
62655;BME280;48717;55.556;37.816;2023-02-15T01:57:05;99685.41;;;-2.74;80.17
62655;BME280;48717;55.556;37.816;2023-02-15T01:59:38;99686.13;;;-2.77;79.77
62655;BME280;48717;55.556;37.816;2023-02-15T02:02:07;99683.91;;;-2.87;79.71
62655;BME280;48717;55.556;37.816;2023-02-15T02:04:53;99688.63;;;-2.78;79.63
62655;BME280;48717;55.556;37.816;2023-02-15T02:07:26;99691.13;;;-2.80;79.48
62655;BME280;48717;55.556;37.816;2023-02-15T02:09:54;99710.00;;;-2.81;79.82
62655;BME280;48717;55.556;37.816;2023-02-15T02:12:23;99672.00;;;-3.02;79.08
62655;BME280;48717;55.556;37.816;2023-02-15T02:14:52;99712.50;;;-2.82;79.05
62655;BME280;48717;55.556;37.816;2023-02-15T02:26:00;99713.81;;;-2.91;78.81
62655;BME280;48717;55.556;37.816;2023-02-15T02:34:37;99704.94;;;-2.96;78.21
62655;BME280;48717;55.556;37.816;2023-02-15T02:37:19;99726.22;;;-2.83;77.52
62655;BME280;48717;55.556;37.816;2023-02-15T02:43:05;99685.13;;;-3.13;76.81
62655;BME280;48717;55.556;37.816;2023-02-15T02:45:50;99726.69;;;-2.91;76.93
62655;BME280;48717;55.556;37.816;2023-02-15T02:48:23;99720.28;;;-2.99;76.63
62655;BME280;48717;55.556;37.816;2023-02-15T02:50:52;99694.50;;;-3.16;76.46
62655;BME280;48717;55.556;37.816;2023-02-15T02:53:19;99736.25;;;-2.90;75.88
62655;BME280;48717;55.556;37.816;2023-02-15T02:55:51;99732.69;;;-2.92;76.42
62655;BME280;48717;55.556;37.816;2023-02-15T02:58:25;99728.34;;;-2.93;76.10
62655;BME280;48717;55.556;37.816;2023-02-15T03:01:01;99698.19;;;-3.10;76.34
62655;BME280;48717;55.556;37.816;2023-02-15T03:03:37;99738.91;;;-2.88;76.30
62655;BME280;48717;55.556;37.816;2023-02-15T03:06:20;99738.00;;;-2.89;75.59
62655;BME280;48717;55.556;37.816;2023-02-15T03:09:01;99722.53;;;-3.05;75.16
62655;BME280;48717;55.556;37.816;2023-02-15T03:11:30;99726.00;;;-3.05;76.45
62655;BME280;48717;55.556;37.816;2023-02-15T03:13:57;99728.97;;;-2.97;74.87
62655;BME280;48717;55.556;37.816;2023-02-15T03:16:25;99710.59;;;-3.20;75.54
62655;BME280;48717;55.556;37.816;2023-02-15T03:19:01;99716.97;;;-3.13;75.29
62655;BME280;48717;55.556;37.816;2023-02-15T03:21:34;99745.34;;;-2.96;74.93
62655;BME280;48717;55.556;37.816;2023-02-15T03:24:10;99751.38;;;-2.96;75.22
62655;BME280;48717;55.556;37.816;2023-02-15T03:26:39;99744.16;;;-3.03;75.67
62655;BME280;48717;55.556;37.816;2023-02-15T03:29:08;99739.13;;;-3.00;75.09
62655;BME280;48717;55.556;37.816;2023-02-15T03:31:40;99749.44;;;-3.00;75.30
62655;BME280;48717;55.556;37.816;2023-02-15T03:34:11;99738.09;;;-3.04;75.65
62655;BME280;48717;55.556;37.816;2023-02-15T03:37:00;99740.75;;;-3.02;75.47
62655;BME280;48717;55.556;37.816;2023-02-15T03:42:21;99750.91;;;-3.05;74.72
62655;BME280;48717;55.556;37.816;2023-02-15T03:44:57;99749.59;;;-3.13;75.20
62655;BME280;48717;55.556;37.816;2023-02-15T03:47:32;99758.56;;;-3.07;75.64
62655;BME280;48717;55.556;37.816;2023-02-15T03:50:13;99724.88;;;-3.26;75.74
62655;BME280;48717;55.556;37.816;2023-02-15T03:53:04;99729.47;;;-3.21;75.26
62655;BME280;48717;55.556;37.816;2023-02-15T03:55:33;99746.00;;;-3.17;75.73
62655;BME280;48717;55.556;37.816;2023-02-15T03:58:01;99746.88;;;-3.17;74.83
62655;BME280;48717;55.556;37.816;2023-02-15T04:00:59;99748.66;;;-3.16;75.07
62655;BME280;48717;55.556;37.816;2023-02-15T04:03:53;99752.06;;;-3.17;75.16
62655;BME280;48717;55.556;37.816;2023-02-15T04:06:20;99744.28;;;-3.33;74.83
62655;BME280;48717;55.556;37.816;2023-02-15T04:08:47;99693.88;;;-3.60;75.01
62655;BME280;48717;55.556;37.816;2023-02-15T04:11:33;99759.94;;;-3.30;75.15
62655;BME280;48717;55.556;37.816;2023-02-15T04:14:00;99768.63;;;-3.28;76.17
62655;BME280;48717;55.556;37.816;2023-02-15T04:16:47;99745.47;;;-3.43;75.47
62655;BME280;48717;55.556;37.816;2023-02-15T04:19:15;99748.28;;;-3.55;75.66
62655;BME280;48717;55.556;37.816;2023-02-15T04:22:01;99750.03;;;-3.54;76.62
62655;BME280;48717;55.556;37.816;2023-02-15T04:24:46;99735.13;;;-3.60;76.22
62655;BME280;48717;55.556;37.816;2023-02-15T04:27:33;99741.34;;;-3.56;76.41
62655;BME280;48717;55.556;37.816;2023-02-15T04:30:00;99766.28;;;-3.40;75.87
62655;BME280;48717;55.556;37.816;2023-02-15T04:32:29;99757.31;;;-3.47;76.20
62655;BME280;48717;55.556;37.816;2023-02-15T04:34:56;99763.44;;;-3.45;76.14
62655;BME280;48717;55.556;37.816;2023-02-15T04:37:23;99706.91;;;-3.73;76.67
62655;BME280;48717;55.556;37.816;2023-02-15T04:39:51;99761.94;;;-3.41;75.89
62655;BME280;48717;55.556;37.816;2023-02-15T04:42:18;99776.31;;;-3.45;75.69
62655;BME280;48717;55.556;37.816;2023-02-15T04:44:45;99735.34;;;-3.72;76.66
62655;BME280;48717;55.556;37.816;2023-02-15T04:47:12;99775.47;;;-3.45;75.68
62655;BME280;48717;55.556;37.816;2023-02-15T04:49:41;99740.69;;;-3.69;76.28
62655;BME280;48717;55.556;37.816;2023-02-15T04:52:08;99771.31;;;-3.58;75.95
62655;BME280;48717;55.556;37.816;2023-02-15T04:54:35;99761.09;;;-3.57;75.89
62655;BME280;48717;55.556;37.816;2023-02-15T04:57:02;99749.72;;;-3.60;76.62
62655;BME280;48717;55.556;37.816;2023-02-15T04:59:30;99743.75;;;-3.59;76.18
62655;BME280;48717;55.556;37.816;2023-02-15T05:01:57;99770.50;;;-3.57;76.40
62655;BME280;48717;55.556;37.816;2023-02-15T05:04:24;99726.88;;;-3.86;75.64
62655;BME280;48717;55.556;37.816;2023-02-15T05:06:51;99743.56;;;-3.79;76.36
62655;BME280;48717;55.556;37.816;2023-02-15T05:09:18;99784.19;;;-3.58;76.22
62655;BME280;48717;55.556;37.816;2023-02-15T05:11:45;99758.81;;;-3.67;75.53
62655;BME280;48717;55.556;37.816;2023-02-15T05:14:12;99745.66;;;-3.72;74.94
62655;BME280;48717;55.556;37.816;2023-02-15T05:16:39;99783.22;;;-3.60;74.75
62655;BME280;48717;55.556;37.816;2023-02-15T05:19:07;99769.47;;;-3.76;74.49
62655;BME280;48717;55.556;37.816;2023-02-15T05:21:34;99770.16;;;-3.63;73.64
62655;BME280;48717;55.556;37.816;2023-02-15T05:24:01;99796.28;;;-3.57;74.18
62655;BME280;48717;55.556;37.816;2023-02-15T05:26:48;99795.31;;;-3.59;74.28
62655;BME280;48717;55.556;37.816;2023-02-15T05:29:34;99790.09;;;-3.76;74.54
62655;BME280;48717;55.556;37.816;2023-02-15T05:32:01;99770.75;;;-3.84;73.97
62655;BME280;48717;55.556;37.816;2023-02-15T05:34:29;99781.91;;;-3.69;74.88
62655;BME280;48717;55.556;37.816;2023-02-15T05:36:56;99780.69;;;-3.75;75.01
62655;BME280;48717;55.556;37.816;2023-02-15T05:39:23;99790.47;;;-3.70;75.01
62655;BME280;48717;55.556;37.816;2023-02-15T05:41:50;99766.16;;;-3.90;75.15
62655;BME280;48717;55.556;37.816;2023-02-15T05:44:17;99774.59;;;-3.92;75.15
62655;BME280;48717;55.556;37.816;2023-02-15T05:46:44;99779.28;;;-3.85;75.15
62655;BME280;48717;55.556;37.816;2023-02-15T05:49:11;99769.88;;;-4.00;75.53
62655;BME280;48717;55.556;37.816;2023-02-15T05:51:38;99796.50;;;-3.84;75.32
62655;BME280;48717;55.556;37.816;2023-02-15T05:54:05;99812.34;;;-3.78;74.68
62655;BME280;48717;55.556;37.816;2023-02-15T05:56:32;99764.03;;;-3.97;74.82
62655;BME280;48717;55.556;37.816;2023-02-15T05:59:00;99747.69;;;-4.13;73.73
62655;BME280;48717;55.556;37.816;2023-02-15T06:01:27;99805.22;;;-3.82;73.57
62655;BME280;48717;55.556;37.816;2023-02-15T06:03:54;99811.78;;;-3.72;73.42
62655;BME280;48717;55.556;37.816;2023-02-15T06:06:22;99809.03;;;-3.75;73.29
62655;BME280;48717;55.556;37.816;2023-02-15T06:08:49;99796.59;;;-3.83;74.42
62655;BME280;48717;55.556;37.816;2023-02-15T06:11:16;99816.22;;;-3.70;73.65
62655;BME280;48717;55.556;37.816;2023-02-15T06:13:43;99795.53;;;-3.86;73.07
62655;BME280;48717;55.556;37.816;2023-02-15T06:16:10;99811.22;;;-3.67;74.37
62655;BME280;48717;55.556;37.816;2023-02-15T06:18:38;99793.31;;;-3.80;73.49
62655;BME280;48717;55.556;37.816;2023-02-15T06:21:05;99813.16;;;-3.62;73.99
62655;BME280;48717;55.556;37.816;2023-02-15T06:23:32;99825.09;;;-3.64;73.52
62655;BME280;48717;55.556;37.816;2023-02-15T06:25:59;99809.28;;;-3.71;72.42
62655;BME280;48717;55.556;37.816;2023-02-15T06:28:27;99822.75;;;-3.60;72.08
62655;BME280;48717;55.556;37.816;2023-02-15T06:30:54;99807.50;;;-3.72;71.73
62655;BME280;48717;55.556;37.816;2023-02-15T06:33:22;99782.25;;;-3.94;72.11
62655;BME280;48717;55.556;37.816;2023-02-15T06:35:49;99833.56;;;-3.67;72.54
62655;BME280;48717;55.556;37.816;2023-02-15T06:38:16;99845.25;;;-3.57;72.45
62655;BME280;48717;55.556;37.816;2023-02-15T06:40:44;99839.47;;;-3.53;70.97
62655;BME280;48717;55.556;37.816;2023-02-15T06:43:11;99812.22;;;-3.64;72.49
62655;BME280;48717;55.556;37.816;2023-02-15T06:45:38;99796.88;;;-3.78;71.66
62655;BME280;48717;55.556;37.816;2023-02-15T06:48:05;99839.47;;;-3.53;72.05
62655;BME280;48717;55.556;37.816;2023-02-15T06:50:34;99818.19;;;-3.65;71.51
62655;BME280;48717;55.556;37.816;2023-02-15T06:53:01;99835.59;;;-3.61;71.90
62655;BME280;48717;55.556;37.816;2023-02-15T06:55:29;99807.81;;;-3.82;72.71
62655;BME280;48717;55.556;37.816;2023-02-15T06:57:56;99851.75;;;-3.64;73.00
62655;BME280;48717;55.556;37.816;2023-02-15T07:00:23;99850.41;;;-3.57;73.36
62655;BME280;48717;55.556;37.816;2023-02-15T07:02:54;99843.31;;;-3.61;72.85
62655;BME280;48717;55.556;37.816;2023-02-15T07:05:22;99845.53;;;-3.68;74.05
62655;BME280;48717;55.556;37.816;2023-02-15T07:07:49;99844.09;;;-3.62;73.02
62655;BME280;48717;55.556;37.816;2023-02-15T07:10:17;99798.84;;;-3.89;73.80
62655;BME280;48717;55.556;37.816;2023-02-15T07:12:44;99825.84;;;-3.82;73.69
62655;BME280;48717;55.556;37.816;2023-02-15T07:15:15;99830.88;;;-3.69;73.29
62655;BME280;48717;55.556;37.816;2023-02-15T07:17:43;99849.44;;;-3.59;73.50
62655;BME280;48717;55.556;37.816;2023-02-15T07:20:14;99842.53;;;-3.60;73.72
62655;BME280;48717;55.556;37.816;2023-02-15T07:22:42;99810.56;;;-3.79;74.20
62655;BME280;48717;55.556;37.816;2023-02-15T07:25:10;99847.69;;;-3.60;74.21
62655;BME280;48717;55.556;37.816;2023-02-15T07:27:39;99850.34;;;-3.59;73.96
62655;BME280;48717;55.556;37.816;2023-02-15T07:30:07;99827.06;;;-3.60;73.56
62655;BME280;48717;55.556;37.816;2023-02-15T07:32:35;99838.19;;;-3.45;72.71
62655;BME280;48717;55.556;37.816;2023-02-15T07:35:02;99818.69;;;-3.56;73.17
62655;BME280;48717;55.556;37.816;2023-02-15T07:37:30;99818.50;;;-3.59;73.82
62655;BME280;48717;55.556;37.816;2023-02-15T07:39:57;99855.25;;;-3.32;73.73
62655;BME280;48717;55.556;37.816;2023-02-15T07:42:24;99805.25;;;-3.50;73.10
62655;BME280;48717;55.556;37.816;2023-02-15T07:44:51;99786.53;;;-3.63;73.17
62655;BME280;48717;55.556;37.816;2023-02-15T07:47:19;99854.72;;;-3.26;73.55
62655;BME280;48717;55.556;37.816;2023-02-15T07:49:46;99837.66;;;-3.39;72.99
62655;BME280;48717;55.556;37.816;2023-02-15T07:52:16;99848.75;;;-3.25;73.86
62655;BME280;48717;55.556;37.816;2023-02-15T07:54:43;99848.91;;;-3.22;72.82
62655;BME280;48717;55.556;37.816;2023-02-15T07:57:10;99842.59;;;-3.27;72.40
62655;BME280;48717;55.556;37.816;2023-02-15T07:59:37;99821.44;;;-3.21;72.41
62655;BME280;48717;55.556;37.816;2023-02-15T08:02:09;99824.09;;;-3.20;71.68
62655;BME280;48717;55.556;37.816;2023-02-15T08:04:36;99853.88;;;-2.93;70.60
62655;BME280;48717;55.556;37.816;2023-02-15T08:07:03;99851.72;;;-2.85;70.06
62655;BME280;48717;55.556;37.816;2023-02-15T08:09:30;99873.16;;;-2.70;70.21
62655;BME280;48717;55.556;37.816;2023-02-15T08:11:57;99888.19;;;-2.63;69.71
62655;BME280;48717;55.556;37.816;2023-02-15T08:14:24;99834.63;;;-2.83;70.04
62655;BME280;48717;55.556;37.816;2023-02-15T08:16:55;99868.72;;;-2.72;69.74
62655;BME280;48717;55.556;37.816;2023-02-15T08:19:30;99883.03;;;-2.63;69.72
62655;BME280;48717;55.556;37.816;2023-02-15T08:22:05;99870.13;;;-2.63;69.31
62655;BME280;48717;55.556;37.816;2023-02-15T08:24:35;99884.47;;;-2.51;69.80
62655;BME280;48717;55.556;37.816;2023-02-15T08:27:05;99851.53;;;-2.55;68.97
62655;BME280;48717;55.556;37.816;2023-02-15T08:29:33;99881.72;;;-2.38;68.40
62655;BME280;48717;55.556;37.816;2023-02-15T08:32:05;99860.09;;;-2.56;69.25
62655;BME280;48717;55.556;37.816;2023-02-15T08:34:36;99882.38;;;-2.25;68.43
62655;BME280;48717;55.556;37.816;2023-02-15T08:37:04;99903.19;;;-2.22;68.39
62655;BME280;48717;55.556;37.816;2023-02-15T08:39:33;99894.31;;;-2.44;67.68
62655;BME280;48717;55.556;37.816;2023-02-15T08:42:00;99883.34;;;-2.56;68.03
62655;BME280;48717;55.556;37.816;2023-02-15T08:44:27;99866.41;;;-2.68;67.85
62655;BME280;48717;55.556;37.816;2023-02-15T08:46:54;99900.47;;;-2.42;68.06
62655;BME280;48717;55.556;37.816;2023-02-15T08:49:24;99902.72;;;-2.48;68.22
62655;BME280;48717;55.556;37.816;2023-02-15T08:51:51;99883.97;;;-2.60;68.36
62655;BME280;48717;55.556;37.816;2023-02-15T08:54:19;99852.84;;;-2.80;69.07
62655;BME280;48717;55.556;37.816;2023-02-15T08:56:47;99885.78;;;-2.59;69.17
62655;BME280;48717;55.556;37.816;2023-02-15T08:59:20;99868.81;;;-2.88;69.15
62655;BME280;48717;55.556;37.816;2023-02-15T09:01:49;99907.22;;;-2.77;68.76
62655;BME280;48717;55.556;37.816;2023-02-15T09:04:17;99867.50;;;-3.12;70.57
62655;BME280;48717;55.556;37.816;2023-02-15T09:06:46;99905.34;;;-2.96;71.41
62655;BME280;48717;55.556;37.816;2023-02-15T09:09:15;99913.63;;;-3.02;71.21
62655;BME280;48717;55.556;37.816;2023-02-15T09:11:45;99909.41;;;-3.00;71.05
62655;BME280;48717;55.556;37.816;2023-02-15T09:14:18;99896.81;;;-3.10;71.27
62655;BME280;48717;55.556;37.816;2023-02-15T09:16:48;99898.75;;;-3.06;71.47
62655;BME280;48717;55.556;37.816;2023-02-15T09:19:19;99896.78;;;-2.95;72.06
62655;BME280;48717;55.556;37.816;2023-02-15T09:21:47;99880.53;;;-3.09;71.50
62655;BME280;48717;55.556;37.816;2023-02-15T09:24:15;99887.00;;;-3.01;70.94
62655;BME280;48717;55.556;37.816;2023-02-15T09:26:45;99903.34;;;-2.85;70.99
62655;BME280;48717;55.556;37.816;2023-02-15T09:29:14;99903.34;;;-2.85;70.23
62655;BME280;48717;55.556;37.816;2023-02-15T09:31:45;99878.81;;;-2.94;70.32
62655;BME280;48717;55.556;37.816;2023-02-15T09:34:14;99898.00;;;-2.89;70.34
62655;BME280;48717;55.556;37.816;2023-02-15T09:36:43;99916.53;;;-2.96;69.59
62655;BME280;48717;55.556;37.816;2023-02-15T09:39:13;99905.19;;;-3.15;70.19
62655;BME280;48717;55.556;37.816;2023-02-15T09:55:39;99936.06;;;-2.84;69.02
62655;BME280;48717;55.556;37.816;2023-02-15T09:58:29;99937.84;;;-2.83;69.04
62655;BME280;48717;55.556;37.816;2023-02-15T10:01:08;99919.91;;;-2.97;69.06
62655;BME280;48717;55.556;37.816;2023-02-15T10:15:08;99943.00;;;-2.83;69.31
62655;BME280;48717;55.556;37.816;2023-02-15T10:18:05;99953.09;;;-2.88;69.37
62655;BME280;48717;55.556;37.816;2023-02-15T10:26:17;99945.72;;;-2.97;68.44
62655;BME280;48717;55.556;37.816;2023-02-15T10:28:59;99951.25;;;-3.06;68.04
62655;BME280;48717;55.556;37.816;2023-02-15T10:31:51;99969.22;;;-3.07;68.76
62655;BME280;48717;55.556;37.816;2023-02-15T10:34:39;99963.97;;;-2.94;68.21
62655;BME280;48717;55.556;37.816;2023-02-15T10:48:57;99956.38;;;-2.42;64.27
62655;BME280;48717;55.556;37.816;2023-02-15T10:54:55;99974.88;;;-2.34;64.99
62655;BME280;48717;55.556;37.816;2023-02-15T11:00:23;99985.56;;;-2.28;64.90
62655;BME280;48717;55.556;37.816;2023-02-15T11:08:10;99985.38;;;-2.31;65.06
62655;BME280;48717;55.556;37.816;2023-02-15T11:10:49;99980.03;;;-2.34;64.86
62655;BME280;48717;55.556;37.816;2023-02-15T11:13:19;99968.31;;;-2.44;65.17
62655;BME280;48717;55.556;37.816;2023-02-15T11:16:05;99977.94;;;-2.42;64.31
62655;BME280;48717;55.556;37.816;2023-02-15T11:22:05;99952.97;;;-2.74;65.85
62655;BME280;48717;55.556;37.816;2023-02-15T11:24:42;99979.41;;;-2.62;65.67
62655;BME280;48717;55.556;37.816;2023-02-15T11:27:19;99985.16;;;-2.68;66.81
62655;BME280;48717;55.556;37.816;2023-02-15T11:30:04;100008.47;;;-2.66;66.90
62655;BME280;48717;55.556;37.816;2023-02-15T11:32:34;99985.91;;;-2.85;67.84
62655;BME280;48717;55.556;37.816;2023-02-15T11:37:48;100009.78;;;-2.90;69.08
62655;BME280;48717;55.556;37.816;2023-02-15T11:40:40;100007.63;;;-2.97;69.83
62655;BME280;48717;55.556;37.816;2023-02-15T11:45:56;100017.97;;;-2.97;68.35
62655;BME280;48717;55.556;37.816;2023-02-15T11:48:23;99987.03;;;-3.12;68.36
62655;BME280;48717;55.556;37.816;2023-02-15T11:50:50;99996.91;;;-3.05;69.12
62655;BME280;48717;55.556;37.816;2023-02-15T11:53:20;100016.19;;;-2.98;68.06
62655;BME280;48717;55.556;37.816;2023-02-15T11:55:48;100001.44;;;-3.16;67.86
62655;BME280;48717;55.556;37.816;2023-02-15T11:58:39;100034.25;;;-2.98;67.96
62655;BME280;48717;55.556;37.816;2023-02-15T12:01:20;100031.66;;;-2.98;67.34
62655;BME280;48717;55.556;37.816;2023-02-15T12:03:54;100023.41;;;-3.07;67.29
62655;BME280;48717;55.556;37.816;2023-02-15T12:06:24;100044.19;;;-2.89;67.67
62655;BME280;48717;55.556;37.816;2023-02-15T12:11:33;100049.53;;;-3.01;67.74
62655;BME280;48717;55.556;37.816;2023-02-15T12:14:07;100008.47;;;-3.28;67.11
62655;BME280;48717;55.556;37.816;2023-02-15T12:19:33;100047.34;;;-2.95;66.19
62655;BME280;48717;55.556;37.816;2023-02-15T12:22:04;100052.94;;;-3.02;65.24
62655;BME280;48717;55.556;37.816;2023-02-15T12:24:44;100051.06;;;-2.90;65.82
62655;BME280;48717;55.556;37.816;2023-02-15T12:27:26;100064.75;;;-2.91;64.65
62655;BME280;48717;55.556;37.816;2023-02-15T12:29:58;100022.06;;;-3.16;63.86
62655;BME280;48717;55.556;37.816;2023-02-15T12:32:34;100077.50;;;-2.94;63.04
62655;BME280;48717;55.556;37.816;2023-02-15T12:35:14;100072.59;;;-3.04;63.77
62655;BME280;48717;55.556;37.816;2023-02-15T12:38:04;100027.56;;;-3.39;63.43
62655;BME280;48717;55.556;37.816;2023-02-15T12:40:33;100047.50;;;-3.22;63.40
62655;BME280;48717;55.556;37.816;2023-02-15T12:43:01;100079.66;;;-3.02;63.29
62655;BME280;48717;55.556;37.816;2023-02-15T12:45:37;100071.09;;;-3.16;62.59
62655;BME280;48717;55.556;37.816;2023-02-15T12:50:43;100059.78;;;-3.33;62.88
62655;BME280;48717;55.556;37.816;2023-02-15T12:53:23;100057.66;;;-3.40;62.43
62655;BME280;48717;55.556;37.816;2023-02-15T12:56:04;100093.78;;;-3.25;63.41
62655;BME280;48717;55.556;37.816;2023-02-15T12:58:36;100098.81;;;-3.26;63.12
62655;BME280;48717;55.556;37.816;2023-02-15T13:06:20;100076.41;;;-3.43;63.46
62655;BME280;48717;55.556;37.816;2023-02-15T13:08:50;100095.97;;;-3.31;63.03
62655;BME280;48717;55.556;37.816;2023-02-15T13:11:31;100097.78;;;-3.30;63.69
62655;BME280;48717;55.556;37.816;2023-02-15T13:14:03;100119.19;;;-3.31;64.24
62655;BME280;48717;55.556;37.816;2023-02-15T13:16:45;100112.06;;;-3.35;64.78
62655;BME280;48717;55.556;37.816;2023-02-15T13:19:20;100077.88;;;-3.61;65.62
62655;BME280;48717;55.556;37.816;2023-02-15T13:21:52;100085.44;;;-3.64;64.99
62655;BME280;48717;55.556;37.816;2023-02-15T13:24:32;100114.19;;;-3.43;65.04
62655;BME280;48717;55.556;37.816;2023-02-15T13:27:01;100112.13;;;-3.49;65.48
62655;BME280;48717;55.556;37.816;2023-02-15T13:29:46;100076.09;;;-3.62;64.17
62655;BME280;48717;55.556;37.816;2023-02-15T13:32:28;100132.53;;;-3.38;64.54
62655;BME280;48717;55.556;37.816;2023-02-15T13:34:59;100105.28;;;-3.48;64.26
62655;BME280;48717;55.556;37.816;2023-02-15T13:37:51;100140.88;;;-3.43;63.69
62655;BME280;48717;55.556;37.816;2023-02-15T13:40:25;100099.53;;;-3.73;64.59
62655;BME280;48717;55.556;37.816;2023-02-15T13:48:57;100151.41;;;-3.53;64.84
62655;BME280;48717;55.556;37.816;2023-02-15T13:51:51;100149.22;;;-3.47;65.57
62655;BME280;48717;55.556;37.816;2023-02-15T13:57:28;100159.94;;;-3.54;64.45
62655;BME280;48717;55.556;37.816;2023-02-15T14:03:25;100165.34;;;-3.64;65.19
62655;BME280;48717;55.556;37.816;2023-02-15T14:09:12;100160.88;;;-3.67;64.71
62655;BME280;48717;55.556;37.816;2023-02-15T14:25:49;100186.78;;;-3.79;66.54
62655;BME280;48717;55.556;37.816;2023-02-15T14:28:29;100189.97;;;-3.83;66.04
62655;BME280;48717;55.556;37.816;2023-02-15T14:31:02;100195.13;;;-3.83;66.48
62655;BME280;48717;55.556;37.816;2023-02-15T14:33:57;100183.22;;;-3.95;66.92
62655;BME280;48717;55.556;37.816;2023-02-15T14:36:25;100177.88;;;-3.98;65.85
62655;BME280;48717;55.556;37.816;2023-02-15T14:44:23;100187.78;;;-3.90;66.74
62655;BME280;48717;55.556;37.816;2023-02-15T14:47:06;100186.31;;;-4.00;67.66
62655;BME280;48717;55.556;37.816;2023-02-15T14:49:38;100205.03;;;-4.03;67.37
62655;BME280;48717;55.556;37.816;2023-02-15T14:52:08;100209.78;;;-3.96;66.79
62655;BME280;48717;55.556;37.816;2023-02-15T14:59:46;100211.56;;;-3.95;68.18
62655;BME280;48717;55.556;37.816;2023-02-15T15:02:23;100219.69;;;-4.02;68.25
62655;BME280;48717;55.556;37.816;2023-02-15T15:07:47;100215.34;;;-4.03;69.12
62655;BME280;48717;55.556;37.816;2023-02-15T15:15:33;100233.78;;;-3.97;68.93
62655;BME280;48717;55.556;37.816;2023-02-15T15:18:08;100235.16;;;-4.02;69.26
62655;BME280;48717;55.556;37.816;2023-02-15T15:20:40;100242.09;;;-4.01;68.60
62655;BME280;48717;55.556;37.816;2023-02-15T15:37:02;100258.66;;;-3.97;69.62
62655;BME280;48717;55.556;37.816;2023-02-15T15:39:38;100255.97;;;-3.99;68.26
62655;BME280;48717;55.556;37.816;2023-02-15T15:45:41;100262.88;;;-3.98;68.20
62655;BME280;48717;55.556;37.816;2023-02-15T15:51:04;100266.66;;;-4.06;70.42
62655;BME280;48717;55.556;37.816;2023-02-15T15:53:38;100270.03;;;-4.07;70.10
62655;BME280;48717;55.556;37.816;2023-02-15T15:56:13;100250.81;;;-4.26;71.80
62655;BME280;48717;55.556;37.816;2023-02-15T15:58:50;100243.88;;;-4.27;70.33
62655;BME280;48717;55.556;37.816;2023-02-15T16:01:25;100261.09;;;-4.12;71.29